sensor_id;sensor_type;location;lat;lon;timestamp;P1;durP1;ratioP1;P2;durP2;ratioP2
18023;SDS011;9137;50.960;3.118;2023-06-14T00:01:50;6.40;;;5.80;;
18023;SDS011;9137;50.960;3.118;2023-06-14T00:04:17;6.78;;;5.53;;
18023;SDS011;9137;50.960;3.118;2023-06-14T00:06:46;5.90;;;5.10;;
18023;SDS011;9137;50.960;3.118;2023-06-14T00:09:15;5.93;;;5.43;;
18023;SDS011;9137;50.960;3.118;2023-06-14T00:11:43;6.57;;;5.40;;
18023;SDS011;9137;50.960;3.118;2023-06-14T00:14:10;6.30;;;5.72;;
18023;SDS011;9137;50.960;3.118;2023-06-14T00:16:37;7.30;;;5.68;;
18023;SDS011;9137;50.960;3.118;2023-06-14T00:19:04;6.32;;;5.65;;
18023;SDS011;9137;50.960;3.118;2023-06-14T00:21:31;6.60;;;6.00;;
18023;SDS011;9137;50.960;3.118;2023-06-14T00:23:58;6.45;;;5.70;;
18023;SDS011;9137;50.960;3.118;2023-06-14T00:26:26;6.38;;;5.78;;
18023;SDS011;9137;50.960;3.118;2023-06-14T00:28:53;6.60;;;5.85;;
18023;SDS011;9137;50.960;3.118;2023-06-14T00:31:21;7.43;;;5.93;;
18023;SDS011;9137;50.960;3.118;2023-06-14T00:33:48;6.93;;;6.22;;
18023;SDS011;9137;50.960;3.118;2023-06-14T00:36:15;6.93;;;6.23;;
18023;SDS011;9137;50.960;3.118;2023-06-14T00:38:42;5.70;;;5.22;;
18023;SDS011;9137;50.960;3.118;2023-06-14T00:41:09;6.10;;;5.50;;
18023;SDS011;9137;50.960;3.118;2023-06-14T00:43:37;6.40;;;5.80;;
18023;SDS011;9137;50.960;3.118;2023-06-14T00:46:04;6.90;;;6.20;;
18023;SDS011;9137;50.960;3.118;2023-06-14T00:48:31;6.90;;;6.30;;
18023;SDS011;9137;50.960;3.118;2023-06-14T00:50:59;7.88;;;6.80;;
18023;SDS011;9137;50.960;3.118;2023-06-14T00:53:29;7.70;;;6.90;;
18023;SDS011;9137;50.960;3.118;2023-06-14T00:55:59;6.90;;;6.28;;
18023;SDS011;9137;50.960;3.118;2023-06-14T00:58:26;7.75;;;7.00;;
18023;SDS011;9137;50.960;3.118;2023-06-14T01:00:55;7.20;;;6.50;;
18023;SDS011;9137;50.960;3.118;2023-06-14T01:03:23;6.90;;;6.22;;
18023;SDS011;9137;50.960;3.118;2023-06-14T01:05:50;7.70;;;6.80;;
18023;SDS011;9137;50.960;3.118;2023-06-14T01:08:24;8.97;;;7.40;;
18023;SDS011;9137;50.960;3.118;2023-06-14T01:10:59;8.25;;;7.35;;
18023;SDS011;9137;50.960;3.118;2023-06-14T01:13:32;7.38;;;6.78;;
18023;SDS011;9137;50.960;3.118;2023-06-14T01:16:02;7.50;;;6.80;;
18023;SDS011;9137;50.960;3.118;2023-06-14T01:18:31;7.45;;;6.75;;
18023;SDS011;9137;50.960;3.118;2023-06-14T01:20:58;7.90;;;7.15;;
18023;SDS011;9137;50.960;3.118;2023-06-14T01:23:32;8.27;;;7.47;;
18023;SDS011;9137;50.960;3.118;2023-06-14T01:25:59;7.82;;;7.13;;
18023;SDS011;9137;50.960;3.118;2023-06-14T01:28:28;8.75;;;7.95;;
18023;SDS011;9137;50.960;3.118;2023-06-14T01:30:59;8.43;;;7.53;;
18023;SDS011;9137;50.960;3.118;2023-06-14T01:33:29;7.83;;;7.07;;
18023;SDS011;9137;50.960;3.118;2023-06-14T01:35:58;8.20;;;7.45;;
18023;SDS011;9137;50.960;3.118;2023-06-14T01:38:27;8.80;;;7.90;;
18023;SDS011;9137;50.960;3.118;2023-06-14T01:40:56;8.38;;;7.65;;
18023;SDS011;9137;50.960;3.118;2023-06-14T01:43:25;8.47;;;7.73;;
18023;SDS011;9137;50.960;3.118;2023-06-14T01:45:53;8.27;;;7.57;;
18023;SDS011;9137;50.960;3.118;2023-06-14T01:48:22;8.27;;;7.57;;
18023;SDS011;9137;50.960;3.118;2023-06-14T01:50:49;8.73;;;7.55;;
18023;SDS011;9137;50.960;3.118;2023-06-14T01:53:16;8.73;;;8.02;;
18023;SDS011;9137;50.960;3.118;2023-06-14T01:55:43;8.13;;;7.40;;
18023;SDS011;9137;50.960;3.118;2023-06-14T01:58:15;8.57;;;7.78;;
18023;SDS011;9137;50.960;3.118;2023-06-14T02:00:42;8.20;;;7.40;;
18023;SDS011;9137;50.960;3.118;2023-06-14T02:03:10;9.27;;;8.47;;
18023;SDS011;9137;50.960;3.118;2023-06-14T02:05:38;9.20;;;8.30;;
18023;SDS011;9137;50.960;3.118;2023-06-14T02:08:05;8.18;;;7.32;;
18023;SDS011;9137;50.960;3.118;2023-06-14T02:10:32;8.13;;;7.43;;
18023;SDS011;9137;50.960;3.118;2023-06-14T02:12:59;8.48;;;7.75;;
18023;SDS011;9137;50.960;3.118;2023-06-14T02:15:28;8.45;;;7.70;;
18023;SDS011;9137;50.960;3.118;2023-06-14T02:17:59;9.20;;;8.40;;
18023;SDS011;9137;50.960;3.118;2023-06-14T02:20:27;8.43;;;7.55;;
18023;SDS011;9137;50.960;3.118;2023-06-14T02:22:54;8.45;;;7.65;;
18023;SDS011;9137;50.960;3.118;2023-06-14T02:25:21;8.98;;;8.07;;
18023;SDS011;9137;50.960;3.118;2023-06-14T02:27:48;8.50;;;7.60;;
18023;SDS011;9137;50.960;3.118;2023-06-14T02:30:15;8.75;;;8.00;;
18023;SDS011;9137;50.960;3.118;2023-06-14T02:32:43;9.55;;;8.45;;
18023;SDS011;9137;50.960;3.118;2023-06-14T02:35:10;9.93;;;9.00;;
18023;SDS011;9137;50.960;3.118;2023-06-14T02:37:38;9.25;;;8.45;;
18023;SDS011;9137;50.960;3.118;2023-06-14T02:40:05;9.30;;;8.40;;
18023;SDS011;9137;50.960;3.118;2023-06-14T02:42:34;9.60;;;8.80;;
18023;SDS011;9137;50.960;3.118;2023-06-14T02:45:01;9.67;;;8.33;;
18023;SDS011;9137;50.960;3.118;2023-06-14T02:47:29;9.18;;;8.27;;
18023;SDS011;9137;50.960;3.118;2023-06-14T02:49:57;9.77;;;8.80;;
18023;SDS011;9137;50.960;3.118;2023-06-14T02:52:24;8.70;;;7.90;;
18023;SDS011;9137;50.960;3.118;2023-06-14T02:54:51;9.77;;;8.88;;
18023;SDS011;9137;50.960;3.118;2023-06-14T02:57:19;10.27;;;9.30;;
18023;SDS011;9137;50.960;3.118;2023-06-14T02:59:46;8.90;;;8.10;;
18023;SDS011;9137;50.960;3.118;2023-06-14T03:02:13;9.25;;;8.32;;
18023;SDS011;9137;50.960;3.118;2023-06-14T03:04:40;10.43;;;9.52;;
18023;SDS011;9137;50.960;3.118;2023-06-14T03:07:11;9.50;;;8.50;;
18023;SDS011;9137;50.960;3.118;2023-06-14T03:09:38;10.13;;;9.02;;
18023;SDS011;9137;50.960;3.118;2023-06-14T03:12:06;9.90;;;9.00;;
18023;SDS011;9137;50.960;3.118;2023-06-14T03:14:34;10.03;;;9.07;;
18023;SDS011;9137;50.960;3.118;2023-06-14T03:17:01;9.18;;;8.38;;
18023;SDS011;9137;50.960;3.118;2023-06-14T03:19:29;8.80;;;8.02;;
18023;SDS011;9137;50.960;3.118;2023-06-14T03:21:57;8.75;;;8.00;;
18023;SDS011;9137;50.960;3.118;2023-06-14T03:24:25;9.23;;;8.43;;
18023;SDS011;9137;50.960;3.118;2023-06-14T03:26:53;8.53;;;7.83;;
18023;SDS011;9137;50.960;3.118;2023-06-14T03:29:21;9.15;;;8.25;;
18023;SDS011;9137;50.960;3.118;2023-06-14T03:31:58;9.40;;;8.50;;
18023;SDS011;9137;50.960;3.118;2023-06-14T03:34:26;9.57;;;8.70;;
18023;SDS011;9137;50.960;3.118;2023-06-14T03:36:53;9.98;;;8.98;;
18023;SDS011;9137;50.960;3.118;2023-06-14T03:39:20;9.50;;;8.57;;
18023;SDS011;9137;50.960;3.118;2023-06-14T03:41:49;9.20;;;8.40;;
18023;SDS011;9137;50.960;3.118;2023-06-14T03:44:16;9.95;;;9.05;;
18023;SDS011;9137;50.960;3.118;2023-06-14T03:46:44;9.23;;;8.43;;
18023;SDS011;9137;50.960;3.118;2023-06-14T03:49:11;9.30;;;8.40;;
18023;SDS011;9137;50.960;3.118;2023-06-14T03:51:38;9.35;;;8.35;;
18023;SDS011;9137;50.960;3.118;2023-06-14T03:54:06;9.55;;;8.75;;
18023;SDS011;9137;50.960;3.118;2023-06-14T03:56:33;9.60;;;8.65;;
18023;SDS011;9137;50.960;3.118;2023-06-14T03:59:01;8.00;;;7.30;;
18023;SDS011;9137;50.960;3.118;2023-06-14T04:01:28;9.20;;;8.18;;
18023;SDS011;9137;50.960;3.118;2023-06-14T04:03:56;8.50;;;7.70;;
18023;SDS011;9137;50.960;3.118;2023-06-14T04:06:23;9.60;;;8.70;;
18023;SDS011;9137;50.960;3.118;2023-06-14T04:08:57;9.88;;;8.73;;
18023;SDS011;9137;50.960;3.118;2023-06-14T04:11:27;10.05;;;9.07;;
18023;SDS011;9137;50.960;3.118;2023-06-14T04:13:54;9.18;;;8.27;;
18023;SDS011;9137;50.960;3.118;2023-06-14T04:16:23;8.63;;;7.82;;
18023;SDS011;9137;50.960;3.118;2023-06-14T04:18:50;8.98;;;8.13;;
18023;SDS011;9137;50.960;3.118;2023-06-14T04:21:17;9.40;;;8.50;;
18023;SDS011;9137;50.960;3.118;2023-06-14T04:23:45;9.55;;;8.43;;
18023;SDS011;9137;50.960;3.118;2023-06-14T04:26:12;10.85;;;9.23;;
18023;SDS011;9137;50.960;3.118;2023-06-14T04:28:39;9.57;;;8.67;;
18023;SDS011;9137;50.960;3.118;2023-06-14T04:31:06;10.43;;;8.85;;
18023;SDS011;9137;50.960;3.118;2023-06-14T04:33:36;9.32;;;8.30;;
18023;SDS011;9137;50.960;3.118;2023-06-14T04:36:08;9.40;;;8.40;;
18023;SDS011;9137;50.960;3.118;2023-06-14T04:38:36;10.32;;;8.95;;
18023;SDS011;9137;50.960;3.118;2023-06-14T04:41:03;11.20;;;9.30;;
18023;SDS011;9137;50.960;3.118;2023-06-14T04:43:31;9.65;;;8.75;;
18023;SDS011;9137;50.960;3.118;2023-06-14T04:46:03;9.18;;;8.27;;
18023;SDS011;9137;50.960;3.118;2023-06-14T04:48:30;10.60;;;9.48;;
18023;SDS011;9137;50.960;3.118;2023-06-14T04:50:59;11.13;;;9.55;;
18023;SDS011;9137;50.960;3.118;2023-06-14T04:53:26;10.60;;;9.50;;
18023;SDS011;9137;50.960;3.118;2023-06-14T04:55:54;12.32;;;10.32;;
18023;SDS011;9137;50.960;3.118;2023-06-14T04:58:21;11.57;;;10.38;;
18023;SDS011;9137;50.960;3.118;2023-06-14T05:00:48;11.05;;;9.95;;
18023;SDS011;9137;50.960;3.118;2023-06-14T05:03:15;11.90;;;9.05;;
18023;SDS011;9137;50.960;3.118;2023-06-14T05:05:43;8.68;;;7.93;;
18023;SDS011;9137;50.960;3.118;2023-06-14T05:08:12;9.67;;;8.67;;
18023;SDS011;9137;50.960;3.118;2023-06-14T05:10:38;9.15;;;8.13;;
18023;SDS011;9137;50.960;3.118;2023-06-14T05:13:05;9.98;;;7.97;;
18023;SDS011;9137;50.960;3.118;2023-06-14T05:15:32;9.32;;;8.05;;
18023;SDS011;9137;50.960;3.118;2023-06-14T05:17:59;8.90;;;8.10;;
18023;SDS011;9137;50.960;3.118;2023-06-14T05:20:27;9.15;;;8.20;;
18023;SDS011;9137;50.960;3.118;2023-06-14T05:22:55;11.60;;;8.60;;
18023;SDS011;9137;50.960;3.118;2023-06-14T05:25:24;8.43;;;7.68;;
18023;SDS011;9137;50.960;3.118;2023-06-14T05:27:53;9.07;;;7.87;;
18023;SDS011;9137;50.960;3.118;2023-06-14T05:30:20;8.88;;;8.18;;
18023;SDS011;9137;50.960;3.118;2023-06-14T05:32:47;9.90;;;8.52;;
18023;SDS011;9137;50.960;3.118;2023-06-14T05:35:15;9.23;;;7.95;;
18023;SDS011;9137;50.960;3.118;2023-06-14T05:37:42;9.65;;;8.00;;
18023;SDS011;9137;50.960;3.118;2023-06-14T05:40:09;8.40;;;7.60;;
18023;SDS011;9137;50.960;3.118;2023-06-14T05:42:38;10.65;;;8.27;;
18023;SDS011;9137;50.960;3.118;2023-06-14T05:45:06;9.20;;;8.40;;
18023;SDS011;9137;50.960;3.118;2023-06-14T05:47:33;8.88;;;8.00;;
18023;SDS011;9137;50.960;3.118;2023-06-14T05:50:00;8.82;;;7.93;;
18023;SDS011;9137;50.960;3.118;2023-06-14T05:52:27;9.05;;;8.10;;
18023;SDS011;9137;50.960;3.118;2023-06-14T05:54:54;8.82;;;7.90;;
18023;SDS011;9137;50.960;3.118;2023-06-14T05:57:21;8.77;;;7.93;;
18023;SDS011;9137;50.960;3.118;2023-06-14T05:59:49;8.93;;;7.60;;
18023;SDS011;9137;50.960;3.118;2023-06-14T06:02:16;10.00;;;8.95;;
18023;SDS011;9137;50.960;3.118;2023-06-14T06:04:43;12.75;;;8.35;;
18023;SDS011;9137;50.960;3.118;2023-06-14T06:07:10;8.82;;;8.02;;
18023;SDS011;9137;50.960;3.118;2023-06-14T06:12:59;10.95;;;8.05;;
18023;SDS011;9137;50.960;3.118;2023-06-14T06:15:27;9.68;;;7.60;;
18023;SDS011;9137;50.960;3.118;2023-06-14T06:17:55;9.32;;;8.10;;
18023;SDS011;9137;50.960;3.118;2023-06-14T06:20:22;9.00;;;7.97;;
18023;SDS011;9137;50.960;3.118;2023-06-14T06:22:53;8.93;;;7.88;;
18023;SDS011;9137;50.960;3.118;2023-06-14T06:25:20;8.50;;;7.45;;
18023;SDS011;9137;50.960;3.118;2023-06-14T06:27:50;9.20;;;8.35;;
18023;SDS011;9137;50.960;3.118;2023-06-14T06:30:17;8.53;;;7.60;;
18023;SDS011;9137;50.960;3.118;2023-06-14T06:32:46;9.45;;;7.70;;
18023;SDS011;9137;50.960;3.118;2023-06-14T06:35:14;9.37;;;7.70;;
18023;SDS011;9137;50.960;3.118;2023-06-14T06:37:41;8.73;;;7.30;;
18023;SDS011;9137;50.960;3.118;2023-06-14T06:40:09;8.30;;;6.93;;
18023;SDS011;9137;50.960;3.118;2023-06-14T06:42:37;8.63;;;7.45;;
18023;SDS011;9137;50.960;3.118;2023-06-14T06:45:05;9.13;;;7.25;;
18023;SDS011;9137;50.960;3.118;2023-06-14T06:47:32;8.30;;;7.53;;
18023;SDS011;9137;50.960;3.118;2023-06-14T06:50:00;8.25;;;7.45;;
18023;SDS011;9137;50.960;3.118;2023-06-14T06:52:27;8.80;;;7.47;;
18023;SDS011;9137;50.960;3.118;2023-06-14T06:54:55;7.53;;;6.82;;
18023;SDS011;9137;50.960;3.118;2023-06-14T06:57:22;8.18;;;6.47;;
18023;SDS011;9137;50.960;3.118;2023-06-14T06:59:49;7.13;;;6.47;;
18023;SDS011;9137;50.960;3.118;2023-06-14T07:02:16;8.50;;;7.28;;
18023;SDS011;9137;50.960;3.118;2023-06-14T07:04:43;9.02;;;7.10;;
18023;SDS011;9137;50.960;3.118;2023-06-14T07:07:11;7.97;;;6.90;;
18023;SDS011;9137;50.960;3.118;2023-06-14T07:09:38;9.70;;;7.10;;
18023;SDS011;9137;50.960;3.118;2023-06-14T07:12:06;8.45;;;7.15;;
18023;SDS011;9137;50.960;3.118;2023-06-14T07:14:34;10.48;;;7.05;;
18023;SDS011;9137;50.960;3.118;2023-06-14T07:17:01;9.63;;;7.63;;
18023;SDS011;9137;50.960;3.118;2023-06-14T07:19:28;10.25;;;7.72;;
18023;SDS011;9137;50.960;3.118;2023-06-14T07:21:55;8.93;;;7.80;;
18023;SDS011;9137;50.960;3.118;2023-06-14T07:24:24;8.65;;;7.78;;
18023;SDS011;9137;50.960;3.118;2023-06-14T07:26:53;8.38;;;7.32;;
18023;SDS011;9137;50.960;3.118;2023-06-14T07:29:21;8.63;;;7.57;;
18023;SDS011;9137;50.960;3.118;2023-06-14T07:31:48;8.45;;;7.60;;
18023;SDS011;9137;50.960;3.118;2023-06-14T07:34:15;7.85;;;6.68;;
18023;SDS011;9137;50.960;3.118;2023-06-14T07:36:42;8.18;;;7.32;;
18023;SDS011;9137;50.960;3.118;2023-06-14T07:39:10;10.00;;;7.55;;
18023;SDS011;9137;50.960;3.118;2023-06-14T07:41:38;7.93;;;7.17;;
18023;SDS011;9137;50.960;3.118;2023-06-14T07:44:05;8.30;;;7.35;;
18023;SDS011;9137;50.960;3.118;2023-06-14T07:46:32;8.32;;;6.35;;
18023;SDS011;9137;50.960;3.118;2023-06-14T07:48:59;8.27;;;6.97;;
18023;SDS011;9137;50.960;3.118;2023-06-14T07:51:26;8.15;;;6.80;;
18023;SDS011;9137;50.960;3.118;2023-06-14T07:53:53;7.15;;;6.50;;
18023;SDS011;9137;50.960;3.118;2023-06-14T07:56:21;7.30;;;6.40;;
18023;SDS011;9137;50.960;3.118;2023-06-14T07:58:49;8.73;;;7.07;;
18023;SDS011;9137;50.960;3.118;2023-06-14T08:01:16;7.35;;;6.55;;
18023;SDS011;9137;50.960;3.118;2023-06-14T08:03:45;7.20;;;6.55;;
18023;SDS011;9137;50.960;3.118;2023-06-14T08:06:12;9.20;;;6.80;;
18023;SDS011;9137;50.960;3.118;2023-06-14T08:08:39;9.10;;;7.03;;
18023;SDS011;9137;50.960;3.118;2023-06-14T08:11:06;8.27;;;6.90;;
18023;SDS011;9137;50.960;3.118;2023-06-14T08:13:33;6.63;;;6.03;;
18023;SDS011;9137;50.960;3.118;2023-06-14T08:16:01;10.10;;;7.67;;
18023;SDS011;9137;50.960;3.118;2023-06-14T08:18:30;9.27;;;7.38;;
18023;SDS011;9137;50.960;3.118;2023-06-14T08:20:57;8.05;;;6.80;;
18023;SDS011;9137;50.960;3.118;2023-06-14T08:23:24;8.98;;;7.63;;
18023;SDS011;9137;50.960;3.118;2023-06-14T08:25:51;8.60;;;7.90;;
18023;SDS011;9137;50.960;3.118;2023-06-14T08:28:18;9.55;;;7.50;;
18023;SDS011;9137;50.960;3.118;2023-06-14T08:30:45;9.63;;;7.70;;
18023;SDS011;9137;50.960;3.118;2023-06-14T08:33:14;8.77;;;7.80;;
18023;SDS011;9137;50.960;3.118;2023-06-14T08:35:41;7.75;;;7.03;;
18023;SDS011;9137;50.960;3.118;2023-06-14T08:38:08;10.02;;;7.68;;
18023;SDS011;9137;50.960;3.118;2023-06-14T08:40:37;7.72;;;6.95;;
18023;SDS011;9137;50.960;3.118;2023-06-14T08:43:04;9.70;;;7.78;;
18023;SDS011;9137;50.960;3.118;2023-06-14T08:45:32;7.32;;;6.65;;
18023;SDS011;9137;50.960;3.118;2023-06-14T08:47:59;8.35;;;7.13;;
18023;SDS011;9137;50.960;3.118;2023-06-14T08:50:29;7.70;;;6.72;;
18023;SDS011;9137;50.960;3.118;2023-06-14T08:53:00;8.10;;;6.93;;
18023;SDS011;9137;50.960;3.118;2023-06-14T08:55:28;7.00;;;5.97;;
18023;SDS011;9137;50.960;3.118;2023-06-14T08:57:56;7.15;;;6.25;;
18023;SDS011;9137;50.960;3.118;2023-06-14T09:00:24;9.40;;;5.93;;
18023;SDS011;9137;50.960;3.118;2023-06-14T09:02:53;8.38;;;6.07;;
18023;SDS011;9137;50.960;3.118;2023-06-14T09:05:23;7.47;;;5.10;;
18023;SDS011;9137;50.960;3.118;2023-06-14T09:07:52;8.73;;;5.25;;
18023;SDS011;9137;50.960;3.118;2023-06-14T09:10:20;7.03;;;5.40;;
18023;SDS011;9137;50.960;3.118;2023-06-14T09:12:48;7.20;;;5.55;;
18023;SDS011;9137;50.960;3.118;2023-06-14T09:15:15;7.50;;;5.85;;
18023;SDS011;9137;50.960;3.118;2023-06-14T09:17:42;7.18;;;5.55;;
18023;SDS011;9137;50.960;3.118;2023-06-14T09:20:09;7.10;;;5.22;;
18023;SDS011;9137;50.960;3.118;2023-06-14T09:22:38;6.60;;;5.30;;
18023;SDS011;9137;50.960;3.118;2023-06-14T09:25:08;11.02;;;7.75;;
18023;SDS011;9137;50.960;3.118;2023-06-14T09:27:36;8.57;;;5.33;;
18023;SDS011;9137;50.960;3.118;2023-06-14T09:30:06;7.88;;;5.43;;
18023;SDS011;9137;50.960;3.118;2023-06-14T09:32:36;7.20;;;5.78;;
18023;SDS011;9137;50.960;3.118;2023-06-14T09:35:04;13.80;;;8.23;;
18023;SDS011;9137;50.960;3.118;2023-06-14T09:37:33;12.07;;;6.22;;
18023;SDS011;9137;50.960;3.118;2023-06-14T09:40:00;5.93;;;4.90;;
18023;SDS011;9137;50.960;3.118;2023-06-14T09:42:30;7.10;;;4.93;;
18023;SDS011;9137;50.960;3.118;2023-06-14T09:45:01;5.50;;;4.90;;
18023;SDS011;9137;50.960;3.118;2023-06-14T09:47:29;17.70;;;8.02;;
18023;SDS011;9137;50.960;3.118;2023-06-14T09:49:57;8.50;;;6.05;;
18023;SDS011;9137;50.960;3.118;2023-06-14T09:52:25;11.47;;;5.97;;
18023;SDS011;9137;50.960;3.118;2023-06-14T09:55:01;8.18;;;5.80;;
18023;SDS011;9137;50.960;3.118;2023-06-14T09:57:39;5.30;;;4.80;;
18023;SDS011;9137;50.960;3.118;2023-06-14T10:00:08;6.20;;;5.47;;
18023;SDS011;9137;50.960;3.118;2023-06-14T10:02:38;6.23;;;4.77;;
18023;SDS011;9137;50.960;3.118;2023-06-14T10:05:12;5.70;;;5.18;;
18023;SDS011;9137;50.960;3.118;2023-06-14T10:07:50;5.80;;;5.20;;
18023;SDS011;9137;50.960;3.118;2023-06-14T10:10:19;5.85;;;5.03;;
18023;SDS011;9137;50.960;3.118;2023-06-14T10:12:48;5.90;;;5.38;;
18023;SDS011;9137;50.960;3.118;2023-06-14T10:15:17;5.90;;;5.40;;
18023;SDS011;9137;50.960;3.118;2023-06-14T10:17:50;5.28;;;4.78;;
18023;SDS011;9137;50.960;3.118;2023-06-14T10:20:26;5.50;;;4.88;;
18023;SDS011;9137;50.960;3.118;2023-06-14T10:23:01;5.60;;;5.10;;
18023;SDS011;9137;50.960;3.118;2023-06-14T10:25:34;5.70;;;5.20;;
18023;SDS011;9137;50.960;3.118;2023-06-14T10:28:19;5.83;;;5.27;;
18023;SDS011;9137;50.960;3.118;2023-06-14T10:31:04;5.63;;;4.78;;
18023;SDS011;9137;50.960;3.118;2023-06-14T10:33:32;6.80;;;5.93;;
18023;SDS011;9137;50.960;3.118;2023-06-14T10:36:09;5.97;;;4.72;;
18023;SDS011;9137;50.960;3.118;2023-06-14T10:38:56;5.05;;;4.70;;
18023;SDS011;9137;50.960;3.118;2023-06-14T10:41:25;4.80;;;4.20;;
18023;SDS011;9137;50.960;3.118;2023-06-14T10:46:55;15.75;;;7.40;;
18023;SDS011;9137;50.960;3.118;2023-06-14T10:49:36;18.70;;;7.25;;
18023;SDS011;9137;50.960;3.118;2023-06-14T10:52:10;7.77;;;5.70;;
18023;SDS011;9137;50.960;3.118;2023-06-14T10:57:34;19.10;;;7.27;;
18023;SDS011;9137;50.960;3.118;2023-06-14T11:00:04;20.30;;;8.32;;
18023;SDS011;9137;50.960;3.118;2023-06-14T11:02:45;5.78;;;4.70;;
18023;SDS011;9137;50.960;3.118;2023-06-14T11:05:31;11.37;;;7.43;;
18023;SDS011;9137;50.960;3.118;2023-06-14T11:11:17;9.90;;;6.50;;
18023;SDS011;9137;50.960;3.118;2023-06-14T11:13:44;5.57;;;5.10;;
18023;SDS011;9137;50.960;3.118;2023-06-14T11:16:12;23.05;;;7.05;;
18023;SDS011;9137;50.960;3.118;2023-06-14T11:18:41;7.82;;;6.10;;
18023;SDS011;9137;50.960;3.118;2023-06-14T11:21:10;5.22;;;4.75;;
18023;SDS011;9137;50.960;3.118;2023-06-14T11:23:37;6.13;;;5.20;;
18023;SDS011;9137;50.960;3.118;2023-06-14T11:26:04;6.32;;;4.95;;
18023;SDS011;9137;50.960;3.118;2023-06-14T11:28:37;5.35;;;4.85;;
18023;SDS011;9137;50.960;3.118;2023-06-14T11:31:05;6.32;;;5.05;;
18023;SDS011;9137;50.960;3.118;2023-06-14T11:33:33;6.15;;;5.28;;
18023;SDS011;9137;50.960;3.118;2023-06-14T11:36:03;6.35;;;5.15;;
18023;SDS011;9137;50.960;3.118;2023-06-14T11:38:34;5.65;;;5.10;;
18023;SDS011;9137;50.960;3.118;2023-06-14T11:41:04;5.40;;;4.90;;
18023;SDS011;9137;50.960;3.118;2023-06-14T11:43:31;5.10;;;4.63;;
18023;SDS011;9137;50.960;3.118;2023-06-14T11:46:00;5.03;;;4.53;;
18023;SDS011;9137;50.960;3.118;2023-06-14T11:48:35;5.28;;;4.78;;
18023;SDS011;9137;50.960;3.118;2023-06-14T11:51:04;5.25;;;4.75;;
18023;SDS011;9137;50.960;3.118;2023-06-14T11:53:31;6.35;;;4.97;;
18023;SDS011;9137;50.960;3.118;2023-06-14T11:55:58;5.75;;;4.60;;
18023;SDS011;9137;50.960;3.118;2023-06-14T11:58:26;5.50;;;5.00;;
18023;SDS011;9137;50.960;3.118;2023-06-14T12:00:53;5.70;;;5.20;;
18023;SDS011;9137;50.960;3.118;2023-06-14T12:03:22;5.45;;;4.88;;
18023;SDS011;9137;50.960;3.118;2023-06-14T12:05:50;5.43;;;4.85;;
18023;SDS011;9137;50.960;3.118;2023-06-14T12:08:33;5.13;;;4.63;;
18023;SDS011;9137;50.960;3.118;2023-06-14T12:11:03;4.97;;;4.57;;
18023;SDS011;9137;50.960;3.118;2023-06-14T12:13:31;5.95;;;4.55;;
18023;SDS011;9137;50.960;3.118;2023-06-14T12:15:58;5.50;;;4.97;;
18023;SDS011;9137;50.960;3.118;2023-06-14T12:18:31;5.28;;;4.60;;
18023;SDS011;9137;50.960;3.118;2023-06-14T12:21:00;5.78;;;4.57;;
18023;SDS011;9137;50.960;3.118;2023-06-14T12:23:39;5.00;;;4.50;;
18023;SDS011;9137;50.960;3.118;2023-06-14T12:26:12;5.28;;;4.82;;
18023;SDS011;9137;50.960;3.118;2023-06-14T12:28:40;5.25;;;4.85;;
18023;SDS011;9137;50.960;3.118;2023-06-14T12:31:08;5.22;;;4.72;;
18023;SDS011;9137;50.960;3.118;2023-06-14T12:33:35;5.60;;;5.10;;
18023;SDS011;9137;50.960;3.118;2023-06-14T12:36:03;5.43;;;4.93;;
18023;SDS011;9137;50.960;3.118;2023-06-14T12:38:31;5.40;;;4.90;;
18023;SDS011;9137;50.960;3.118;2023-06-14T12:40:59;6.38;;;4.82;;
18023;SDS011;9137;50.960;3.118;2023-06-14T12:43:27;5.55;;;5.00;;
18023;SDS011;9137;50.960;3.118;2023-06-14T12:45:54;5.43;;;4.93;;
18023;SDS011;9137;50.960;3.118;2023-06-14T12:48:21;4.55;;;4.20;;
18023;SDS011;9137;50.960;3.118;2023-06-14T12:50:48;5.05;;;4.65;;
18023;SDS011;9137;50.960;3.118;2023-06-14T12:53:16;4.70;;;4.30;;
18023;SDS011;9137;50.960;3.118;2023-06-14T12:55:43;4.93;;;4.60;;
18023;SDS011;9137;50.960;3.118;2023-06-14T12:58:11;5.35;;;4.85;;
18023;SDS011;9137;50.960;3.118;2023-06-14T13:00:39;6.50;;;5.10;;
18023;SDS011;9137;50.960;3.118;2023-06-14T13:03:06;5.53;;;5.00;;
18023;SDS011;9137;50.960;3.118;2023-06-14T13:05:33;7.15;;;5.20;;
18023;SDS011;9137;50.960;3.118;2023-06-14T13:08:00;5.23;;;4.73;;
18023;SDS011;9137;50.960;3.118;2023-06-14T13:10:28;12.60;;;7.55;;
18023;SDS011;9137;50.960;3.118;2023-06-14T13:12:55;8.10;;;6.10;;
18023;SDS011;9137;50.960;3.118;2023-06-14T13:15:25;7.10;;;4.60;;
18023;SDS011;9137;50.960;3.118;2023-06-14T13:17:52;13.05;;;7.82;;
18023;SDS011;9137;50.960;3.118;2023-06-14T13:20:19;6.55;;;4.85;;
18023;SDS011;9137;50.960;3.118;2023-06-14T13:22:46;12.50;;;7.03;;
18023;SDS011;9137;50.960;3.118;2023-06-14T13:25:13;8.77;;;5.28;;
18023;SDS011;9137;50.960;3.118;2023-06-14T13:27:40;5.38;;;4.97;;
18023;SDS011;9137;50.960;3.118;2023-06-14T13:30:07;16.13;;;7.33;;
18023;SDS011;9137;50.960;3.118;2023-06-14T13:32:37;5.07;;;4.60;;
18023;SDS011;9137;50.960;3.118;2023-06-14T13:35:07;12.00;;;6.40;;
18023;SDS011;9137;50.960;3.118;2023-06-14T13:37:35;6.43;;;5.43;;
18023;SDS011;9137;50.960;3.118;2023-06-14T13:40:02;5.50;;;4.90;;
18023;SDS011;9137;50.960;3.118;2023-06-14T13:42:29;7.65;;;4.97;;
18023;SDS011;9137;50.960;3.118;2023-06-14T13:44:57;6.60;;;5.20;;
18023;SDS011;9137;50.960;3.118;2023-06-14T13:47:25;13.27;;;5.88;;
18023;SDS011;9137;50.960;3.118;2023-06-14T13:49:53;5.47;;;5.00;;
18023;SDS011;9137;50.960;3.118;2023-06-14T13:52:20;5.85;;;4.60;;
18023;SDS011;9137;50.960;3.118;2023-06-14T13:54:48;6.85;;;5.10;;
18023;SDS011;9137;50.960;3.118;2023-06-14T13:57:15;9.63;;;5.43;;
18023;SDS011;9137;50.960;3.118;2023-06-14T13:59:42;6.25;;;4.75;;
18023;SDS011;9137;50.960;3.118;2023-06-14T14:02:10;9.05;;;5.35;;
18023;SDS011;9137;50.960;3.118;2023-06-14T14:04:38;5.20;;;4.40;;
18023;SDS011;9137;50.960;3.118;2023-06-14T14:07:07;5.95;;;4.72;;
18023;SDS011;9137;50.960;3.118;2023-06-14T14:09:34;4.70;;;4.38;;
18023;SDS011;9137;50.960;3.118;2023-06-14T14:12:02;6.63;;;4.65;;
18023;SDS011;9137;50.960;3.118;2023-06-14T14:14:30;6.07;;;4.97;;
18023;SDS011;9137;50.960;3.118;2023-06-14T14:16:58;4.85;;;4.45;;
18023;SDS011;9137;50.960;3.118;2023-06-14T14:19:25;4.88;;;4.47;;
18023;SDS011;9137;50.960;3.118;2023-06-14T14:21:52;5.55;;;4.30;;
18023;SDS011;9137;50.960;3.118;2023-06-14T14:24:21;4.78;;;4.38;;
18023;SDS011;9137;50.960;3.118;2023-06-14T14:26:48;5.60;;;4.50;;
18023;SDS011;9137;50.960;3.118;2023-06-14T14:29:15;5.03;;;4.63;;
18023;SDS011;9137;50.960;3.118;2023-06-14T14:31:43;5.13;;;4.63;;
18023;SDS011;9137;50.960;3.118;2023-06-14T14:34:09;5.60;;;4.73;;
18023;SDS011;9137;50.960;3.118;2023-06-14T14:36:41;5.25;;;4.75;;
18023;SDS011;9137;50.960;3.118;2023-06-14T14:39:09;5.03;;;4.57;;
18023;SDS011;9137;50.960;3.118;2023-06-14T14:41:38;5.45;;;4.70;;
18023;SDS011;9137;50.960;3.118;2023-06-14T14:44:05;5.18;;;4.68;;
18023;SDS011;9137;50.960;3.118;2023-06-14T14:46:32;5.17;;;4.63;;
18023;SDS011;9137;50.960;3.118;2023-06-14T14:48:59;4.68;;;4.28;;
18023;SDS011;9137;50.960;3.118;2023-06-14T14:51:26;6.22;;;4.53;;
18023;SDS011;9137;50.960;3.118;2023-06-14T14:53:53;6.45;;;4.50;;
18023;SDS011;9137;50.960;3.118;2023-06-14T14:56:20;4.80;;;4.40;;
18023;SDS011;9137;50.960;3.118;2023-06-14T14:58:50;5.43;;;4.80;;
18023;SDS011;9137;50.960;3.118;2023-06-14T15:01:17;4.80;;;4.40;;
18023;SDS011;9137;50.960;3.118;2023-06-14T15:03:43;5.57;;;4.45;;
18023;SDS011;9137;50.960;3.118;2023-06-14T15:06:10;5.88;;;4.57;;
18023;SDS011;9137;50.960;3.118;2023-06-14T15:08:37;5.45;;;4.50;;
18023;SDS011;9137;50.960;3.118;2023-06-14T15:11:04;7.07;;;4.57;;
18023;SDS011;9137;50.960;3.118;2023-06-14T15:13:31;5.47;;;4.70;;
18023;SDS011;9137;50.960;3.118;2023-06-14T15:16:00;7.78;;;5.20;;
18023;SDS011;9137;50.960;3.118;2023-06-14T15:18:27;4.78;;;4.15;;
18023;SDS011;9137;50.960;3.118;2023-06-14T15:20:54;4.90;;;4.45;;